Airfield :







YOU CAN JOIN US ON...

 
LOGIN :

Register | Disclaimer

   EN    FR    IT 

 









Legend :    VFR   Marginal VFR   IFR   Intensive IFR   Very Intensive IFR
Visi :
Ceiling :
>= 8 km
>= 3000ft
5 to 8 km
1000 to 3000 ft
1500m to 5 km
500 to 1000 ft
800 to 1500m
200 to 500 ft
< 800m
< 200 ft
Symbols :   Thunderstorms  Fog  Heavy snow  Heavy precipitations  Wind > 20 kt






- Airport Elevation : 84 ft
- IATA code : YJT


CYJT - Stephenville

CURRENT METAR :
  • 242300Z 35003KT 330V080 15SM SKC M10/M15 A3049 RMK SLP330

EXPIRED METARs :
  • 242200Z 02004KT 260V070 15SM SKC M08/M14 A3048 RMK SLP325
  • 242100Z VRB02KT 15SM FEW034 M09/M14 A3047 RMK SC1 SLP322

TAF TAF CYJT
Valid from the 24 at 18:00 until the 25 at 18:00 UTC


241742Z 2418/2518 32012G22KT P6SM BKN030
TEMPO 2418/2424 BKN020
BECMG 2420/2422 33008KT
FM250000 VRB03KT P6SM SCT025
TEMPO 2500/2518 BKN020
BECMG 2509/2511 28010KT RMK NXT FCST BY 250000Z



MET'MAP, your aeronautical weather chart ! - Copyright ORBIFLY December 2007 - Disclaimer

ORBIFLY MET'MAP TEAM :

Programming & Development : Alexandra Zaïnal
Concept & original design : Baudouin d'Aumeries
Assistance for programming : Marc-Olivier Méhu
Technical & hardware support : Manuel Goepfert

Contact : metmap@orbifly.com




SOURCES & CREDITS :

   NOAA